sensor_id;sensor_type;location;lat;lon;timestamp;pressure;altitude;pressure_sealevel;temperature;humidity
64614;BME280;51025;37.772;-122.432;2022-07-25T00:01:16;100671.65;;;19.21;31.30
64614;BME280;51025;37.772;-122.432;2022-07-25T00:03:44;100675.06;;;19.50;31.06
64614;BME280;51025;37.772;-122.432;2022-07-25T00:06:12;100678.39;;;20.14;31.13
64614;BME280;51025;37.772;-122.432;2022-07-25T00:08:40;100678.10;;;19.02;31.42
64614;BME280;51025;37.772;-122.432;2022-07-25T00:11:09;100679.68;;;19.40;31.48
64614;BME280;51025;37.772;-122.432;2022-07-25T00:13:38;100676.46;;;19.21;31.24
64614;BME280;51025;37.772;-122.432;2022-07-25T00:16:07;100677.12;;;19.05;31.37
64614;BME280;51025;37.772;-122.432;2022-07-25T00:18:35;100678.01;;;19.13;31.30
64614;BME280;51025;37.772;-122.432;2022-07-25T00:21:05;100681.99;;;19.36;31.46
64614;BME280;51025;37.772;-122.432;2022-07-25T00:23:35;100676.71;;;19.52;31.33
64614;BME280;51025;37.772;-122.432;2022-07-25T00:26:03;100674.58;;;19.11;31.27
64614;BME280;51025;37.772;-122.432;2022-07-25T00:28:32;100671.70;;;19.20;31.21
64614;BME280;51025;37.772;-122.432;2022-07-25T00:31:00;100676.19;;;19.43;31.38
64614;BME280;51025;37.772;-122.432;2022-07-25T00:33:29;100676.49;;;19.81;31.35
64614;BME280;51025;37.772;-122.432;2022-07-25T00:35:58;100672.76;;;19.49;31.29
64614;BME280;51025;37.772;-122.432;2022-07-25T00:38:26;100675.34;;;19.68;31.43
64614;BME280;51025;37.772;-122.432;2022-07-25T00:40:55;100669.75;;;19.41;31.35
64614;BME280;51025;37.772;-122.432;2022-07-25T00:43:23;100663.26;;;19.92;31.22
64614;BME280;51025;37.772;-122.432;2022-07-25T00:45:52;100655.62;;;19.64;31.18
64614;BME280;51025;37.772;-122.432;2022-07-25T00:48:21;100657.78;;;19.73;31.08
64614;BME280;51025;37.772;-122.432;2022-07-25T00:50:49;100655.62;;;19.61;31.23
64614;BME280;51025;37.772;-122.432;2022-07-25T00:53:18;100658.68;;;19.36;31.17
64614;BME280;51025;37.772;-122.432;2022-07-25T00:55:47;100659.55;;;19.22;31.25
64614;BME280;51025;37.772;-122.432;2022-07-25T00:58:16;100656.49;;;19.54;31.33
64614;BME280;51025;37.772;-122.432;2022-07-25T01:00:45;100645.52;;;19.16;31.32
64614;BME280;51025;37.772;-122.432;2022-07-25T01:03:15;100636.09;;;19.42;31.38
64614;BME280;51025;37.772;-122.432;2022-07-25T01:05:44;100635.83;;;19.11;31.12
64614;BME280;51025;37.772;-122.432;2022-07-25T01:08:13;100637.59;;;19.35;31.29
64614;BME280;51025;37.772;-122.432;2022-07-25T01:10:41;100644.27;;;19.05;31.17
64614;BME280;51025;37.772;-122.432;2022-07-25T01:13:11;100640.40;;;19.53;31.42
64614;BME280;51025;37.772;-122.432;2022-07-25T01:15:41;100637.47;;;18.54;31.57
64614;BME280;51025;37.772;-122.432;2022-07-25T01:18:09;100637.28;;;19.06;31.94
64614;BME280;51025;37.772;-122.432;2022-07-25T01:20:38;100633.05;;;18.62;32.09
64614;BME280;51025;37.772;-122.432;2022-07-25T01:23:07;100630.82;;;19.55;31.87
64614;BME280;51025;37.772;-122.432;2022-07-25T01:25:36;100638.61;;;19.56;31.62
64614;BME280;51025;37.772;-122.432;2022-07-25T01:28:04;100636.82;;;20.08;31.14
64614;BME280;51025;37.772;-122.432;2022-07-25T01:30:33;100638.89;;;18.91;31.67
64614;BME280;51025;37.772;-122.432;2022-07-25T01:33:01;100634.08;;;19.87;31.47
64614;BME280;51025;37.772;-122.432;2022-07-25T01:35:29;100632.65;;;19.94;31.44
64614;BME280;51025;37.772;-122.432;2022-07-25T01:37:58;100638.18;;;19.69;31.36
64614;BME280;51025;37.772;-122.432;2022-07-25T01:40:26;100636.34;;;20.01;31.41
64614;BME280;51025;37.772;-122.432;2022-07-25T01:42:55;100633.76;;;19.71;31.36
64614;BME280;51025;37.772;-122.432;2022-07-25T01:45:23;100631.76;;;20.44;31.05
64614;BME280;51025;37.772;-122.432;2022-07-25T01:47:51;100624.56;;;19.89;31.20
64614;BME280;51025;37.772;-122.432;2022-07-25T01:50:20;100627.38;;;20.59;30.93
64614;BME280;51025;37.772;-122.432;2022-07-25T01:52:49;100632.18;;;19.49;31.29
64614;BME280;51025;37.772;-122.432;2022-07-25T01:55:18;100631.66;;;20.20;31.02
64614;BME280;51025;37.772;-122.432;2022-07-25T01:57:47;100636.29;;;19.86;30.97
64614;BME280;51025;37.772;-122.432;2022-07-25T02:00:16;100637.50;;;20.13;31.11
64614;BME280;51025;37.772;-122.432;2022-07-25T02:02:45;100644.14;;;19.69;31.10
64614;BME280;51025;37.772;-122.432;2022-07-25T02:05:14;100648.82;;;20.29;31.07
64614;BME280;51025;37.772;-122.432;2022-07-25T02:07:43;100649.00;;;19.78;31.08
64614;BME280;51025;37.772;-122.432;2022-07-25T02:10:12;100643.88;;;20.32;30.93
64614;BME280;51025;37.772;-122.432;2022-07-25T02:12:41;100644.41;;;19.47;31.08
64614;BME280;51025;37.772;-122.432;2022-07-25T02:15:10;100642.03;;;19.93;30.92
64614;BME280;51025;37.772;-122.432;2022-07-25T02:17:38;100646.60;;;20.18;30.71
64614;BME280;51025;37.772;-122.432;2022-07-25T02:20:07;100650.03;;;19.92;30.98
64614;BME280;51025;37.772;-122.432;2022-07-25T02:22:36;100656.15;;;20.07;30.83
64614;BME280;51025;37.772;-122.432;2022-07-25T02:25:05;100658.77;;;20.18;30.79
64614;BME280;51025;37.772;-122.432;2022-07-25T02:27:34;100650.33;;;19.48;30.68
64614;BME280;51025;37.772;-122.432;2022-07-25T02:30:02;100653.06;;;20.18;30.77
64614;BME280;51025;37.772;-122.432;2022-07-25T02:32:31;100663.50;;;19.40;30.78
64614;BME280;51025;37.772;-122.432;2022-07-25T02:34:59;100663.41;;;20.24;30.71
64614;BME280;51025;37.772;-122.432;2022-07-25T02:37:28;100667.35;;;20.42;30.56
64614;BME280;51025;37.772;-122.432;2022-07-25T02:39:57;100677.10;;;20.28;30.65
64614;BME280;51025;37.772;-122.432;2022-07-25T02:42:25;100672.41;;;20.30;30.64
64614;BME280;51025;37.772;-122.432;2022-07-25T02:44:54;100676.95;;;20.36;30.59
64614;BME280;51025;37.772;-122.432;2022-07-25T02:47:23;100669.21;;;20.62;30.33
64614;BME280;51025;37.772;-122.432;2022-07-25T02:49:51;100669.13;;;20.61;30.36
64614;BME280;51025;37.772;-122.432;2022-07-25T02:52:19;100670.90;;;20.55;30.42
64614;BME280;51025;37.772;-122.432;2022-07-25T02:54:47;100673.29;;;20.72;30.31
64614;BME280;51025;37.772;-122.432;2022-07-25T02:57:15;100674.27;;;20.87;30.23
64614;BME280;51025;37.772;-122.432;2022-07-25T02:59:44;100679.43;;;20.84;30.35
64614;BME280;51025;37.772;-122.432;2022-07-25T03:02:13;100676.58;;;20.87;30.39
64614;BME280;51025;37.772;-122.432;2022-07-25T03:04:41;100673.63;;;20.58;30.53
64614;BME280;51025;37.772;-122.432;2022-07-25T03:07:09;100677.53;;;21.57;30.10
64614;BME280;51025;37.772;-122.432;2022-07-25T03:09:38;100680.30;;;20.33;30.89
64614;BME280;51025;37.772;-122.432;2022-07-25T03:12:07;100682.63;;;20.79;30.82
64614;BME280;51025;37.772;-122.432;2022-07-25T03:14:36;100673.89;;;20.30;31.00
64614;BME280;51025;37.772;-122.432;2022-07-25T03:17:05;100686.27;;;21.03;30.99
64614;BME280;51025;37.772;-122.432;2022-07-25T03:19:33;100686.56;;;19.86;31.00
64614;BME280;51025;37.772;-122.432;2022-07-25T03:22:02;100690.37;;;20.33;30.87
64614;BME280;51025;37.772;-122.432;2022-07-25T03:24:31;100693.23;;;20.15;30.97
64614;BME280;51025;37.772;-122.432;2022-07-25T03:26:59;100695.48;;;20.62;30.79
64614;BME280;51025;37.772;-122.432;2022-07-25T03:29:29;100698.64;;;20.64;30.62
64614;BME280;51025;37.772;-122.432;2022-07-25T03:31:57;100694.85;;;20.85;30.66
64614;BME280;51025;37.772;-122.432;2022-07-25T03:34:26;100702.95;;;20.52;30.65
64614;BME280;51025;37.772;-122.432;2022-07-25T03:36:55;100701.49;;;20.54;30.70
64614;BME280;51025;37.772;-122.432;2022-07-25T03:39:24;100697.24;;;20.55;30.70
64614;BME280;51025;37.772;-122.432;2022-07-25T03:41:53;100701.81;;;20.64;30.62
64614;BME280;51025;37.772;-122.432;2022-07-25T03:44:22;100702.65;;;20.72;30.82
64614;BME280;51025;37.772;-122.432;2022-07-25T03:46:51;100707.28;;;20.37;30.84
64614;BME280;51025;37.772;-122.432;2022-07-25T03:49:20;100710.89;;;20.55;30.68
64614;BME280;51025;37.772;-122.432;2022-07-25T03:51:48;100708.97;;;20.90;30.65
64614;BME280;51025;37.772;-122.432;2022-07-25T03:54:16;100714.16;;;20.59;30.54
64614;BME280;51025;37.772;-122.432;2022-07-25T03:56:47;100715.43;;;20.58;30.50
64614;BME280;51025;37.772;-122.432;2022-07-25T03:59:17;100717.11;;;20.86;30.56
64614;BME280;51025;37.772;-122.432;2022-07-25T04:01:48;100717.76;;;20.25;30.76
64614;BME280;51025;37.772;-122.432;2022-07-25T04:04:17;100723.31;;;20.83;30.54
64614;BME280;51025;37.772;-122.432;2022-07-25T04:06:46;100729.39;;;20.41;30.57
64614;BME280;51025;37.772;-122.432;2022-07-25T04:09:14;100725.60;;;20.65;30.69
64614;BME280;51025;37.772;-122.432;2022-07-25T04:11:43;100730.36;;;20.63;30.68
64614;BME280;51025;37.772;-122.432;2022-07-25T04:14:11;100733.07;;;20.25;30.71
64614;BME280;51025;37.772;-122.432;2022-07-25T04:16:41;100732.01;;;20.09;30.79
64614;BME280;51025;37.772;-122.432;2022-07-25T04:19:09;100731.59;;;20.34;30.90
64614;BME280;51025;37.772;-122.432;2022-07-25T04:21:37;100726.30;;;20.56;30.65
64614;BME280;51025;37.772;-122.432;2022-07-25T04:24:05;100720.25;;;20.48;30.71
64614;BME280;51025;37.772;-122.432;2022-07-25T04:26:34;100715.07;;;19.74;30.67
64614;BME280;51025;37.772;-122.432;2022-07-25T04:29:02;100721.47;;;20.48;30.67
64614;BME280;51025;37.772;-122.432;2022-07-25T04:31:31;100719.16;;;20.49;30.66
64614;BME280;51025;37.772;-122.432;2022-07-25T04:33:59;100723.62;;;20.35;30.78
64614;BME280;51025;37.772;-122.432;2022-07-25T04:36:28;100732.64;;;20.26;30.88
64614;BME280;51025;37.772;-122.432;2022-07-25T04:38:56;100732.74;;;20.27;30.86
64614;BME280;51025;37.772;-122.432;2022-07-25T04:41:24;100732.92;;;20.00;30.77
64614;BME280;51025;37.772;-122.432;2022-07-25T04:43:52;100737.60;;;20.31;30.78
64614;BME280;51025;37.772;-122.432;2022-07-25T04:46:22;100747.71;;;20.30;30.78
64614;BME280;51025;37.772;-122.432;2022-07-25T04:48:51;100748.00;;;20.37;30.68
64614;BME280;51025;37.772;-122.432;2022-07-25T04:51:20;100751.15;;;20.24;30.80
64614;BME280;51025;37.772;-122.432;2022-07-25T04:53:49;100752.60;;;20.11;30.90
64614;BME280;51025;37.772;-122.432;2022-07-25T04:56:17;100758.14;;;20.05;30.94
64614;BME280;51025;37.772;-122.432;2022-07-25T04:58:45;100762.45;;;20.19;30.81
64614;BME280;51025;37.772;-122.432;2022-07-25T05:01:13;100766.38;;;20.05;30.90
64614;BME280;51025;37.772;-122.432;2022-07-25T05:03:42;100769.94;;;20.02;30.90
64614;BME280;51025;37.772;-122.432;2022-07-25T05:06:10;100782.01;;;19.95;31.01
64614;BME280;51025;37.772;-122.432;2022-07-25T05:08:38;100775.90;;;19.98;30.93
64614;BME280;51025;37.772;-122.432;2022-07-25T05:11:07;100771.33;;;20.05;30.86
64614;BME280;51025;37.772;-122.432;2022-07-25T05:13:36;100778.53;;;19.47;31.02
64614;BME280;51025;37.772;-122.432;2022-07-25T05:16:05;100773.79;;;19.94;30.90
64614;BME280;51025;37.772;-122.432;2022-07-25T05:18:33;100777.13;;;19.84;31.00
64614;BME280;51025;37.772;-122.432;2022-07-25T05:21:02;100785.53;;;20.71;30.91
64614;BME280;51025;37.772;-122.432;2022-07-25T05:23:31;100785.13;;;19.59;30.91
64614;BME280;51025;37.772;-122.432;2022-07-25T05:25:59;100785.20;;;19.97;30.85
64614;BME280;51025;37.772;-122.432;2022-07-25T05:28:28;100781.60;;;19.99;30.86
64614;BME280;51025;37.772;-122.432;2022-07-25T05:30:56;100788.31;;;19.88;30.92
64614;BME280;51025;37.772;-122.432;2022-07-25T05:33:24;100786.77;;;19.84;30.95
64614;BME280;51025;37.772;-122.432;2022-07-25T05:35:52;100786.16;;;19.79;31.04
64614;BME280;51025;37.772;-122.432;2022-07-25T05:38:21;100788.67;;;20.44;30.79
64614;BME280;51025;37.772;-122.432;2022-07-25T05:40:49;100792.42;;;19.92;30.81
64614;BME280;51025;37.772;-122.432;2022-07-25T05:43:18;100798.02;;;19.92;30.85
64614;BME280;51025;37.772;-122.432;2022-07-25T05:45:46;100798.67;;;19.81;30.92
64614;BME280;51025;37.772;-122.432;2022-07-25T05:48:14;100799.71;;;19.76;30.97
64614;BME280;51025;37.772;-122.432;2022-07-25T05:50:43;100798.56;;;19.94;30.80
64614;BME280;51025;37.772;-122.432;2022-07-25T05:53:12;100796.25;;;20.15;31.00
64614;BME280;51025;37.772;-122.432;2022-07-25T05:55:40;100802.80;;;19.86;30.82
64614;BME280;51025;37.772;-122.432;2022-07-25T05:58:09;100804.97;;;20.26;30.86
64614;BME280;51025;37.772;-122.432;2022-07-25T06:00:38;100805.11;;;19.78;31.02
64614;BME280;51025;37.772;-122.432;2022-07-25T06:03:06;100800.81;;;19.73;31.13
64614;BME280;51025;37.772;-122.432;2022-07-25T06:05:35;100798.01;;;19.81;31.13
64614;BME280;51025;37.772;-122.432;2022-07-25T06:08:04;100800.72;;;19.81;31.21
64614;BME280;51025;37.772;-122.432;2022-07-25T06:10:33;100799.76;;;19.24;31.31
64614;BME280;51025;37.772;-122.432;2022-07-25T06:13:02;100800.29;;;19.78;31.14
64614;BME280;51025;37.772;-122.432;2022-07-25T06:15:30;100794.96;;;19.73;31.17
64614;BME280;51025;37.772;-122.432;2022-07-25T06:17:58;100796.39;;;20.01;31.30
64614;BME280;51025;37.772;-122.432;2022-07-25T06:20:28;100794.96;;;19.54;31.34
64614;BME280;51025;37.772;-122.432;2022-07-25T06:22:56;100798.06;;;19.59;31.27
64614;BME280;51025;37.772;-122.432;2022-07-25T06:25:24;100794.47;;;19.54;31.28
64614;BME280;51025;37.772;-122.432;2022-07-25T06:27:53;100789.33;;;19.47;31.30
64614;BME280;51025;37.772;-122.432;2022-07-25T06:30:22;100791.95;;;19.58;31.19
64614;BME280;51025;37.772;-122.432;2022-07-25T06:32:51;100790.32;;;19.46;31.29
64614;BME280;51025;37.772;-122.432;2022-07-25T06:35:20;100796.58;;;19.96;31.18
64614;BME280;51025;37.772;-122.432;2022-07-25T06:37:48;100792.82;;;19.49;31.21
64614;BME280;51025;37.772;-122.432;2022-07-25T06:40:17;100792.85;;;19.90;31.18
64614;BME280;51025;37.772;-122.432;2022-07-25T06:42:46;100788.99;;;19.52;31.13
64614;BME280;51025;37.772;-122.432;2022-07-25T06:45:15;100785.67;;;19.90;31.15
64614;BME280;51025;37.772;-122.432;2022-07-25T06:47:44;100786.77;;;19.90;31.17
64614;BME280;51025;37.772;-122.432;2022-07-25T06:50:15;100789.76;;;19.49;31.20
64614;BME280;51025;37.772;-122.432;2022-07-25T06:52:44;100784.90;;;19.39;31.40
64614;BME280;51025;37.772;-122.432;2022-07-25T06:55:14;100787.56;;;19.30;31.48
64614;BME280;51025;37.772;-122.432;2022-07-25T06:57:43;100780.87;;;19.42;31.33
64614;BME280;51025;37.772;-122.432;2022-07-25T07:00:12;100784.12;;;19.44;31.34
64614;BME280;51025;37.772;-122.432;2022-07-25T07:02:50;100782.29;;;19.57;31.17
64614;BME280;51025;37.772;-122.432;2022-07-25T07:05:19;100783.19;;;19.93;31.21
64614;BME280;51025;37.772;-122.432;2022-07-25T07:07:47;100787.54;;;19.31;31.39
64614;BME280;51025;37.772;-122.432;2022-07-25T07:10:17;100788.13;;;19.31;31.40
64614;BME280;51025;37.772;-122.432;2022-07-25T07:12:45;100787.73;;;19.30;31.42
64614;BME280;51025;37.772;-122.432;2022-07-25T07:15:15;100787.67;;;20.02;31.47
64614;BME280;51025;37.772;-122.432;2022-07-25T07:17:44;100791.49;;;19.31;31.40
64614;BME280;51025;37.772;-122.432;2022-07-25T07:20:12;100790.98;;;19.08;31.62
64614;BME280;51025;37.772;-122.432;2022-07-25T07:22:45;100786.65;;;19.05;31.62
64614;BME280;51025;37.772;-122.432;2022-07-25T07:25:14;100786.09;;;19.58;31.50
64614;BME280;51025;37.772;-122.432;2022-07-25T07:27:43;100778.63;;;19.50;31.58
64614;BME280;51025;37.772;-122.432;2022-07-25T07:30:12;100776.50;;;19.15;31.52
64614;BME280;51025;37.772;-122.432;2022-07-25T07:32:41;100776.31;;;19.11;31.55
64614;BME280;51025;37.772;-122.432;2022-07-25T07:35:10;100772.18;;;19.43;31.63
64614;BME280;51025;37.772;-122.432;2022-07-25T07:37:39;100771.01;;;19.06;31.58
64614;BME280;51025;37.772;-122.432;2022-07-25T07:40:09;100763.59;;;19.42;31.62
64614;BME280;51025;37.772;-122.432;2022-07-25T07:42:40;100764.24;;;18.98;31.63
64614;BME280;51025;37.772;-122.432;2022-07-25T07:45:13;100769.60;;;19.71;31.66
64614;BME280;51025;37.772;-122.432;2022-07-25T07:47:43;100764.51;;;19.20;31.42
64614;BME280;51025;37.772;-122.432;2022-07-25T07:50:12;100765.63;;;19.46;31.53
64614;BME280;51025;37.772;-122.432;2022-07-25T07:52:42;100770.02;;;19.70;31.61
64614;BME280;51025;37.772;-122.432;2022-07-25T07:55:11;100772.08;;;19.67;31.63
64614;BME280;51025;37.772;-122.432;2022-07-25T07:57:40;100772.17;;;19.09;31.87
64614;BME280;51025;37.772;-122.432;2022-07-25T08:00:09;100766.17;;;19.17;31.78
64614;BME280;51025;37.772;-122.432;2022-07-25T08:02:43;100760.87;;;18.75;31.79
64614;BME280;51025;37.772;-122.432;2022-07-25T08:05:12;100767.07;;;19.16;31.76
64614;BME280;51025;37.772;-122.432;2022-07-25T08:07:41;100767.58;;;19.10;31.83
64614;BME280;51025;37.772;-122.432;2022-07-25T08:10:10;100774.34;;;19.43;31.87
64614;BME280;51025;37.772;-122.432;2022-07-25T08:12:41;100775.24;;;18.77;31.75
64614;BME280;51025;37.772;-122.432;2022-07-25T08:15:10;100770.81;;;19.12;31.80
64614;BME280;51025;37.772;-122.432;2022-07-25T08:17:38;100765.27;;;18.59;31.91
64614;BME280;51025;37.772;-122.432;2022-07-25T08:20:07;100768.89;;;19.42;31.82
64614;BME280;51025;37.772;-122.432;2022-07-25T08:22:38;100770.62;;;18.93;31.94
64614;BME280;51025;37.772;-122.432;2022-07-25T08:25:08;100770.87;;;19.42;31.81
64614;BME280;51025;37.772;-122.432;2022-07-25T08:27:36;100771.60;;;18.66;31.77
64614;BME280;51025;37.772;-122.432;2022-07-25T08:30:06;100772.75;;;19.47;31.72
64614;BME280;51025;37.772;-122.432;2022-07-25T08:32:46;100770.23;;;18.32;31.74
64614;BME280;51025;37.772;-122.432;2022-07-25T08:35:15;100765.21;;;19.42;31.75
64614;BME280;51025;37.772;-122.432;2022-07-25T08:37:44;100762.05;;;19.48;31.66
64614;BME280;51025;37.772;-122.432;2022-07-25T08:40:14;100768.90;;;19.49;31.65
64614;BME280;51025;37.772;-122.432;2022-07-25T08:42:43;100769.47;;;19.11;31.68
64614;BME280;51025;37.772;-122.432;2022-07-25T08:45:14;100767.10;;;18.96;31.84
64614;BME280;51025;37.772;-122.432;2022-07-25T08:47:43;100765.12;;;18.51;31.86
64614;BME280;51025;37.772;-122.432;2022-07-25T08:50:15;100769.42;;;19.67;31.83
64614;BME280;51025;37.772;-122.432;2022-07-25T08:52:44;100766.63;;;19.34;31.82
64614;BME280;51025;37.772;-122.432;2022-07-25T08:55:14;100764.60;;;19.34;31.79
64614;BME280;51025;37.772;-122.432;2022-07-25T08:57:44;100763.73;;;19.05;31.71
64614;BME280;51025;37.772;-122.432;2022-07-25T09:00:16;100763.82;;;19.24;31.88
64614;BME280;51025;37.772;-122.432;2022-07-25T09:02:51;100758.93;;;18.91;31.81
64614;BME280;51025;37.772;-122.432;2022-07-25T09:05:20;100760.59;;;19.12;31.98
64614;BME280;51025;37.772;-122.432;2022-07-25T09:07:50;100757.64;;;19.14;31.97
64614;BME280;51025;37.772;-122.432;2022-07-25T09:10:21;100753.31;;;19.21;31.87
64614;BME280;51025;37.772;-122.432;2022-07-25T09:12:53;100755.04;;;18.88;31.86
64614;BME280;51025;37.772;-122.432;2022-07-25T09:15:26;100760.22;;;19.23;31.78
64614;BME280;51025;37.772;-122.432;2022-07-25T09:17:56;100764.21;;;19.23;31.83
64614;BME280;51025;37.772;-122.432;2022-07-25T09:20:36;100766.24;;;19.20;31.87
64614;BME280;51025;37.772;-122.432;2022-07-25T09:23:06;100768.80;;;19.13;31.93
64614;BME280;51025;37.772;-122.432;2022-07-25T09:25:36;100770.93;;;18.34;31.98
64614;BME280;51025;37.772;-122.432;2022-07-25T09:28:14;100774.58;;;18.74;31.97
64614;BME280;51025;37.772;-122.432;2022-07-25T09:30:53;100773.71;;;18.72;31.97
64614;BME280;51025;37.772;-122.432;2022-07-25T09:33:23;100772.03;;;18.92;32.12
64614;BME280;51025;37.772;-122.432;2022-07-25T09:35:53;100774.42;;;19.03;32.01
64614;BME280;51025;37.772;-122.432;2022-07-25T09:38:23;100779.45;;;19.21;31.84
64614;BME280;51025;37.772;-122.432;2022-07-25T09:40:57;100776.73;;;19.19;31.89
64614;BME280;51025;37.772;-122.432;2022-07-25T09:43:35;100773.49;;;19.18;31.85
64614;BME280;51025;37.772;-122.432;2022-07-25T09:46:05;100779.90;;;19.10;31.95
64614;BME280;51025;37.772;-122.432;2022-07-25T09:48:33;100787.01;;;18.34;31.92
64614;BME280;51025;37.772;-122.432;2022-07-25T09:51:04;100782.76;;;19.12;31.94
64614;BME280;51025;37.772;-122.432;2022-07-25T09:53:33;100778.76;;;18.16;32.09
64614;BME280;51025;37.772;-122.432;2022-07-25T09:56:02;100780.43;;;18.97;32.04
64614;BME280;51025;37.772;-122.432;2022-07-25T09:58:31;100779.02;;;19.09;31.93
64614;BME280;51025;37.772;-122.432;2022-07-25T10:01:03;100779.40;;;18.92;32.16
64614;BME280;51025;37.772;-122.432;2022-07-25T10:03:43;100777.87;;;18.27;31.97
64614;BME280;51025;37.772;-122.432;2022-07-25T10:06:20;100780.85;;;19.38;31.94
64614;BME280;51025;37.772;-122.432;2022-07-25T10:08:51;100778.64;;;18.31;31.90
64614;BME280;51025;37.772;-122.432;2022-07-25T10:11:21;100777.53;;;19.02;31.94
64614;BME280;51025;37.772;-122.432;2022-07-25T10:13:51;100774.34;;;18.91;32.04
64614;BME280;51025;37.772;-122.432;2022-07-25T10:16:22;100773.19;;;18.94;32.02
64614;BME280;51025;37.772;-122.432;2022-07-25T10:18:53;100775.19;;;19.41;31.88
64614;BME280;51025;37.772;-122.432;2022-07-25T10:21:23;100776.16;;;19.26;32.01
64614;BME280;51025;37.772;-122.432;2022-07-25T10:24:02;100790.31;;;19.15;31.79
64614;BME280;51025;37.772;-122.432;2022-07-25T10:26:31;100780.22;;;18.68;31.88
64614;BME280;51025;37.772;-122.432;2022-07-25T10:29:06;100780.75;;;18.93;31.93
64614;BME280;51025;37.772;-122.432;2022-07-25T10:31:36;100780.92;;;18.19;31.93
64614;BME280;51025;37.772;-122.432;2022-07-25T10:34:07;100783.84;;;18.73;32.16
64614;BME280;51025;37.772;-122.432;2022-07-25T10:36:46;100781.05;;;18.46;32.04
64614;BME280;51025;37.772;-122.432;2022-07-25T10:39:17;100780.08;;;19.04;32.17
64614;BME280;51025;37.772;-122.432;2022-07-25T10:41:51;100780.33;;;18.98;32.29
64614;BME280;51025;37.772;-122.432;2022-07-25T10:44:19;100784.39;;;18.65;32.24
64614;BME280;51025;37.772;-122.432;2022-07-25T10:46:48;100789.93;;;18.79;32.05
64614;BME280;51025;37.772;-122.432;2022-07-25T10:49:21;100792.39;;;18.87;32.07
64614;BME280;51025;37.772;-122.432;2022-07-25T10:51:56;100793.06;;;18.63;32.21
64614;BME280;51025;37.772;-122.432;2022-07-25T10:54:30;100789.76;;;19.03;32.17
64614;BME280;51025;37.772;-122.432;2022-07-25T10:56:59;100786.00;;;18.69;32.14
64614;BME280;51025;37.772;-122.432;2022-07-25T10:59:31;100791.68;;;19.47;32.17
64614;BME280;51025;37.772;-122.432;2022-07-25T11:02:00;100796.52;;;18.74;32.06
64614;BME280;51025;37.772;-122.432;2022-07-25T11:04:30;100791.86;;;18.57;32.23
64614;BME280;51025;37.772;-122.432;2022-07-25T11:07:08;100787.32;;;18.53;32.31
64614;BME280;51025;37.772;-122.432;2022-07-25T11:09:37;100790.51;;;18.23;32.21
64614;BME280;51025;37.772;-122.432;2022-07-25T11:12:05;100792.27;;;18.98;32.16
64614;BME280;51025;37.772;-122.432;2022-07-25T11:14:36;100800.05;;;18.26;32.22
64614;BME280;51025;37.772;-122.432;2022-07-25T11:17:14;100798.69;;;19.01;32.09
64614;BME280;51025;37.772;-122.432;2022-07-25T11:19:53;100797.67;;;18.57;32.21
64614;BME280;51025;37.772;-122.432;2022-07-25T11:22:23;100799.56;;;18.97;32.17
64614;BME280;51025;37.772;-122.432;2022-07-25T11:24:52;100805.34;;;18.84;32.24
64614;BME280;51025;37.772;-122.432;2022-07-25T11:27:23;100799.33;;;18.47;32.26
64614;BME280;51025;37.772;-122.432;2022-07-25T11:29:53;100801.57;;;18.76;32.34
64614;BME280;51025;37.772;-122.432;2022-07-25T11:32:38;100798.42;;;18.25;32.19
64614;BME280;51025;37.772;-122.432;2022-07-25T11:35:09;100802.26;;;18.56;32.23
64614;BME280;51025;37.772;-122.432;2022-07-25T11:37:39;100799.46;;;18.37;31.97
64614;BME280;51025;37.772;-122.432;2022-07-25T11:40:09;100798.13;;;18.46;32.27
64614;BME280;51025;37.772;-122.432;2022-07-25T11:42:41;100795.32;;;18.37;32.36
64614;BME280;51025;37.772;-122.432;2022-07-25T11:45:17;100793.96;;;18.43;32.29
64614;BME280;51025;37.772;-122.432;2022-07-25T11:47:48;100793.97;;;18.53;32.16
64614;BME280;51025;37.772;-122.432;2022-07-25T11:50:17;100794.36;;;19.21;32.22
64614;BME280;51025;37.772;-122.432;2022-07-25T11:52:59;100792.77;;;18.61;32.07
64614;BME280;51025;37.772;-122.432;2022-07-25T11:55:30;100795.59;;;18.43;32.23
64614;BME280;51025;37.772;-122.432;2022-07-25T11:58:01;100795.64;;;18.65;31.98
64614;BME280;51025;37.772;-122.432;2022-07-25T12:00:32;100799.60;;;18.61;32.03
64614;BME280;51025;37.772;-122.432;2022-07-25T12:03:08;100803.83;;;18.54;32.05
64614;BME280;51025;37.772;-122.432;2022-07-25T12:05:36;100806.16;;;17.76;32.07
64614;BME280;51025;37.772;-122.432;2022-07-25T12:08:09;100813.62;;;18.63;31.98
64614;BME280;51025;37.772;-122.432;2022-07-25T12:10:40;100808.86;;;18.54;32.07
64614;BME280;51025;37.772;-122.432;2022-07-25T12:13:19;100808.37;;;18.80;32.20
64614;BME280;51025;37.772;-122.432;2022-07-25T12:15:48;100811.60;;;18.77;32.19
64614;BME280;51025;37.772;-122.432;2022-07-25T12:18:16;100812.83;;;18.62;32.32
64614;BME280;51025;37.772;-122.432;2022-07-25T12:20:44;100814.28;;;18.27;32.35
64614;BME280;51025;37.772;-122.432;2022-07-25T12:23:13;100814.43;;;18.25;32.33
64614;BME280;51025;37.772;-122.432;2022-07-25T12:25:43;100818.36;;;17.89;32.33
64614;BME280;51025;37.772;-122.432;2022-07-25T12:28:12;100821.34;;;18.71;32.28
64614;BME280;51025;37.772;-122.432;2022-07-25T12:30:43;100823.33;;;18.44;32.10
64614;BME280;51025;37.772;-122.432;2022-07-25T12:33:12;100825.15;;;18.73;32.15